| Date | Time | Temp. (oF) | Dew Point (oF) | Rel. Hum. (%) | Press. (in.) | Wind Dir. | Wind Speed (mph) | Hourly Rainfall (in.) |
|
|---|---|---|---|---|---|---|---|---|---|
| 1 | 12/22 | 00:00 | 30 | 21 | 70 | 30.18 | SW | 2 | 0.00 |
| 2 | 12/21 | 23:00 | 30 | 21 | 69 | 30.18 | SSW | 2 | 0.00 |
| 3 | 12/21 | 22:00 | 29 | 20 | 69 | 30.18 | SSW | 4 | 0.00 |
| 4 | 12/21 | 21:00 | 28 | 19 | 69 | 30.17 | SSW | 3 | 0.00 |
| 5 | 12/21 | 20:00 | 28 | 18 | 68 | 30.18 | SSW | 3 | 0.00 |
| 6 | 12/21 | 19:00 | 29 | 19 | 66 | 30.18 | SSW | 3 | 0.00 |
| 7 | 12/21 | 18:00 | 28 | 18 | 66 | 30.16 | SSW | 4 | 0.00 |
| 8 | 12/21 | 17:00 | 29 | 18 | 65 | 30.15 | SW | 5 | 0.00 |
| 9 | 12/21 | 16:00 | 30 | 18 | 61 | 30.14 | WNW | 5 | 0.00 |
| 10 | 12/21 | 15:00 | 32 | 18 | 57 | 30.13 | WSW | 9 | 0.00 |
| 11 | 12/21 | 14:00 | 32 | 18 | 58 | 30.12 | SW | 10 | 0.00 |
| 12 | 12/21 | 13:00 | 31 | 19 | 62 | 30.16 | SW | 6 | 0.00 |
| 13 | 12/21 | 12:00 | 30 | 19 | 64 | 30.21 | WSW | 9 | 0.00 |
| 14 | miss | miss | miss | miss | miss | miss | miss | miss | |
| 15 | 12/21 | 04:25 | 21 | -34 | 7 | 11.00 | WSW | 1 | 12.00 |
| 16 | miss | miss | miss | miss | miss | miss | miss | miss | |
| 17 | 12/21 | 04:25 | 21 | -34 | 7 | 11.00 | WSW | 1 | 12.00 |
| 18 | miss | miss | miss | miss | miss | miss | miss | miss | |
| 19 | 12/21 | 04:25 | 21 | -34 | 7 | 11.00 | WSW | 1 | 12.00 |
| 20 | miss | miss | miss | miss | miss | miss | miss | miss | |
| 21 | 12/21 | 04:00 | 22 | 16 | 78 | 30.22 | NNW | 2 | 0.00 |
| 22 | 12/21 | 03:00 | 22 | 15 | 75 | 30.22 | SW | 3 | 0.00 |
| 23 | 12/21 | 02:00 | 24 | 15 | 71 | 30.22 | WNW | 5 | 0.00 |
| 24 | 12/21 | 01:00 | 25 | 16 | 69 | 30.21 | WNW | 4 | 0.00 |